Terminal Aerodrome Forecast
Issued by NWS Shreveport, LA

Home | Current Version | Previous Version | Text Only | Print | Product List | Glossary On
Versions: 1 2 3 4 5 6 7 8 9 10 11 12 13 14 15 16
000
FTUS44 KSHV 201738
TAFMLU
TAF
KMLU 201738Z 2018/2118 21007KT P6SM SCT025 BKN030 BKN200
      TEMPO 2018/2019 BKN020
     FM202100 19006KT P6SM SCT040 BKN150 BKN250
     FM210100 15003KT P6SM SCT150 SCT250
     FM211000 VRB02KT 4SM BR BKN010
     FM211500 21004KT P6SM FEW010 SCT040=

USA.gov is the U.S. government's official web portal to all federal, state and local government web resources and services.